sensor_id;sensor_type;location;lat;lon;timestamp;P1;durP1;ratioP1;P2;durP2;ratioP2
22468;SDS011;11401;50.792;4.352;2023-05-10T00:00:33;4.55;;;3.80;;
22468;SDS011;11401;50.792;4.352;2023-05-10T00:03:00;7.35;;;4.60;;
22468;SDS011;11401;50.792;4.352;2023-05-10T00:05:27;6.18;;;4.13;;
22468;SDS011;11401;50.792;4.352;2023-05-10T00:07:54;9.73;;;3.67;;
22468;SDS011;11401;50.792;4.352;2023-05-10T00:10:21;7.32;;;4.32;;
22468;SDS011;11401;50.792;4.352;2023-05-10T00:12:48;6.53;;;3.92;;
22468;SDS011;11401;50.792;4.352;2023-05-10T00:15:16;7.15;;;4.07;;
22468;SDS011;11401;50.792;4.352;2023-05-10T00:17:43;8.32;;;3.92;;
22468;SDS011;11401;50.792;4.352;2023-05-10T00:20:10;5.13;;;3.78;;
22468;SDS011;11401;50.792;4.352;2023-05-10T00:22:37;7.97;;;4.15;;
22468;SDS011;11401;50.792;4.352;2023-05-10T00:25:05;9.75;;;4.47;;
22468;SDS011;11401;50.792;4.352;2023-05-10T00:27:32;7.03;;;4.63;;
22468;SDS011;11401;50.792;4.352;2023-05-10T00:29:59;6.63;;;4.15;;
22468;SDS011;11401;50.792;4.352;2023-05-10T00:32:27;5.35;;;3.85;;
22468;SDS011;11401;50.792;4.352;2023-05-10T00:34:54;9.27;;;4.07;;
22468;SDS011;11401;50.792;4.352;2023-05-10T00:37:21;7.40;;;4.18;;
22468;SDS011;11401;50.792;4.352;2023-05-10T00:39:48;5.35;;;4.30;;
22468;SDS011;11401;50.792;4.352;2023-05-10T00:42:15;4.03;;;3.60;;
22468;SDS011;11401;50.792;4.352;2023-05-10T00:44:43;6.65;;;4.18;;
22468;SDS011;11401;50.792;4.352;2023-05-10T00:47:10;4.88;;;3.75;;
22468;SDS011;11401;50.792;4.352;2023-05-10T00:49:37;6.40;;;4.00;;
22468;SDS011;11401;50.792;4.352;2023-05-10T00:52:05;6.88;;;4.15;;
22468;SDS011;11401;50.792;4.352;2023-05-10T00:54:32;6.70;;;4.72;;
22468;SDS011;11401;50.792;4.352;2023-05-10T00:56:59;12.45;;;4.38;;
22468;SDS011;11401;50.792;4.352;2023-05-10T00:59:26;9.57;;;4.50;;
22468;SDS011;11401;50.792;4.352;2023-05-10T01:01:54;9.75;;;4.68;;
22468;SDS011;11401;50.792;4.352;2023-05-10T01:04:21;6.40;;;4.05;;
22468;SDS011;11401;50.792;4.352;2023-05-10T01:06:52;9.82;;;5.32;;
22468;SDS011;11401;50.792;4.352;2023-05-10T01:09:20;6.72;;;4.55;;
22468;SDS011;11401;50.792;4.352;2023-05-10T01:11:48;5.43;;;4.25;;
22468;SDS011;11401;50.792;4.352;2023-05-10T01:14:16;7.75;;;4.53;;
22468;SDS011;11401;50.792;4.352;2023-05-10T01:16:46;5.47;;;3.85;;
22468;SDS011;11401;50.792;4.352;2023-05-10T01:19:24;6.55;;;4.80;;
22468;SDS011;11401;50.792;4.352;2023-05-10T01:30:46;4.68;;;4.20;;
22468;SDS011;11401;50.792;4.352;2023-05-10T01:36:08;6.03;;;4.60;;
22468;SDS011;11401;50.792;4.352;2023-05-10T01:44:29;6.80;;;5.60;;
22468;SDS011;11401;50.792;4.352;2023-05-10T01:47:11;5.32;;;4.82;;
22468;SDS011;11401;50.792;4.352;2023-05-10T01:49:47;4.63;;;3.88;;
22468;SDS011;11401;50.792;4.352;2023-05-10T01:52:18;6.57;;;4.93;;
22468;SDS011;11401;50.792;4.352;2023-05-10T01:54:49;6.95;;;5.80;;
22468;SDS011;11401;50.792;4.352;2023-05-10T01:57:21;9.57;;;6.03;;
22468;SDS011;11401;50.792;4.352;2023-05-10T01:59:52;12.13;;;5.32;;
22468;SDS011;11401;50.792;4.352;2023-05-10T02:02:20;8.13;;;5.90;;
22468;SDS011;11401;50.792;4.352;2023-05-10T02:04:50;5.63;;;5.07;;
22468;SDS011;11401;50.792;4.352;2023-05-10T02:07:19;6.63;;;5.28;;
22468;SDS011;11401;50.792;4.352;2023-05-10T02:09:48;8.25;;;5.63;;
22468;SDS011;11401;50.792;4.352;2023-05-10T02:12:16;9.45;;;6.72;;
22468;SDS011;11401;50.792;4.352;2023-05-10T02:14:44;8.55;;;4.82;;
22468;SDS011;11401;50.792;4.352;2023-05-10T02:17:13;9.07;;;6.38;;
22468;SDS011;11401;50.792;4.352;2023-05-10T02:19:41;8.20;;;6.15;;
22468;SDS011;11401;50.792;4.352;2023-05-10T02:22:09;8.15;;;5.90;;
22468;SDS011;11401;50.792;4.352;2023-05-10T02:24:36;7.07;;;5.20;;
22468;SDS011;11401;50.792;4.352;2023-05-10T02:27:04;10.55;;;5.78;;
22468;SDS011;11401;50.792;4.352;2023-05-10T02:29:34;9.52;;;5.88;;
22468;SDS011;11401;50.792;4.352;2023-05-10T02:32:02;7.82;;;5.00;;
22468;SDS011;11401;50.792;4.352;2023-05-10T02:34:29;6.72;;;5.05;;
22468;SDS011;11401;50.792;4.352;2023-05-10T02:36:58;7.10;;;5.50;;
22468;SDS011;11401;50.792;4.352;2023-05-10T02:39:26;8.65;;;5.70;;
22468;SDS011;11401;50.792;4.352;2023-05-10T02:41:55;14.07;;;5.68;;
22468;SDS011;11401;50.792;4.352;2023-05-10T02:44:23;7.78;;;5.78;;
22468;SDS011;11401;50.792;4.352;2023-05-10T02:46:54;5.43;;;4.85;;
22468;SDS011;11401;50.792;4.352;2023-05-10T02:49:22;6.57;;;4.68;;
22468;SDS011;11401;50.792;4.352;2023-05-10T02:51:51;7.53;;;5.22;;
22468;SDS011;11401;50.792;4.352;2023-05-10T02:54:25;6.35;;;4.65;;
22468;SDS011;11401;50.792;4.352;2023-05-10T02:56:57;7.70;;;5.57;;
22468;SDS011;11401;50.792;4.352;2023-05-10T02:59:28;6.72;;;5.07;;
22468;SDS011;11401;50.792;4.352;2023-05-10T03:01:55;7.35;;;5.28;;
22468;SDS011;11401;50.792;4.352;2023-05-10T03:04:22;6.90;;;5.20;;
22468;SDS011;11401;50.792;4.352;2023-05-10T03:06:52;8.48;;;5.80;;
22468;SDS011;11401;50.792;4.352;2023-05-10T03:09:19;6.00;;;4.65;;
22468;SDS011;11401;50.792;4.352;2023-05-10T03:20:15;7.53;;;5.13;;
22468;SDS011;11401;50.792;4.352;2023-05-10T03:22:50;10.07;;;5.65;;
22468;SDS011;11401;50.792;4.352;2023-05-10T03:25:22;7.80;;;6.57;;
22468;SDS011;11401;50.792;4.352;2023-05-10T03:27:51;8.52;;;6.30;;
22468;SDS011;11401;50.792;4.352;2023-05-10T03:30:19;8.73;;;6.78;;
22468;SDS011;11401;50.792;4.352;2023-05-10T03:32:46;7.88;;;5.78;;
22468;SDS011;11401;50.792;4.352;2023-05-10T03:35:16;9.20;;;6.47;;
22468;SDS011;11401;50.792;4.352;2023-05-10T03:37:43;10.65;;;7.32;;
22468;SDS011;11401;50.792;4.352;2023-05-10T03:40:10;11.75;;;8.18;;
22468;SDS011;11401;50.792;4.352;2023-05-10T03:42:40;6.68;;;5.18;;
22468;SDS011;11401;50.792;4.352;2023-05-10T03:45:08;14.48;;;8.35;;
22468;SDS011;11401;50.792;4.352;2023-05-10T03:47:36;9.07;;;6.88;;
22468;SDS011;11401;50.792;4.352;2023-05-10T03:50:03;7.07;;;5.70;;
22468;SDS011;11401;50.792;4.352;2023-05-10T03:52:31;10.43;;;6.22;;
22468;SDS011;11401;50.792;4.352;2023-05-10T03:54:58;6.68;;;5.60;;
22468;SDS011;11401;50.792;4.352;2023-05-10T03:57:25;8.68;;;5.57;;
22468;SDS011;11401;50.792;4.352;2023-05-10T03:59:52;10.02;;;5.88;;
22468;SDS011;11401;50.792;4.352;2023-05-10T04:02:19;10.68;;;7.45;;
22468;SDS011;11401;50.792;4.352;2023-05-10T04:04:46;9.18;;;6.60;;
22468;SDS011;11401;50.792;4.352;2023-05-10T04:07:14;7.28;;;6.40;;
22468;SDS011;11401;50.792;4.352;2023-05-10T04:09:41;9.85;;;7.53;;
22468;SDS011;11401;50.792;4.352;2023-05-10T04:12:08;9.13;;;6.60;;
22468;SDS011;11401;50.792;4.352;2023-05-10T04:14:36;7.65;;;6.05;;
22468;SDS011;11401;50.792;4.352;2023-05-10T04:17:03;10.60;;;7.35;;
22468;SDS011;11401;50.792;4.352;2023-05-10T04:19:30;11.60;;;7.07;;
22468;SDS011;11401;50.792;4.352;2023-05-10T04:21:58;9.88;;;6.53;;
22468;SDS011;11401;50.792;4.352;2023-05-10T04:24:25;8.73;;;6.07;;
22468;SDS011;11401;50.792;4.352;2023-05-10T04:26:53;8.68;;;6.28;;
22468;SDS011;11401;50.792;4.352;2023-05-10T04:29:23;8.02;;;6.18;;
22468;SDS011;11401;50.792;4.352;2023-05-10T04:31:50;8.48;;;5.28;;
22468;SDS011;11401;50.792;4.352;2023-05-10T04:34:17;10.48;;;6.32;;
22468;SDS011;11401;50.792;4.352;2023-05-10T04:36:45;8.25;;;6.20;;
22468;SDS011;11401;50.792;4.352;2023-05-10T04:39:12;7.88;;;6.15;;
22468;SDS011;11401;50.792;4.352;2023-05-10T04:41:39;7.10;;;4.95;;
22468;SDS011;11401;50.792;4.352;2023-05-10T04:44:07;7.35;;;4.60;;
22468;SDS011;11401;50.792;4.352;2023-05-10T04:46:34;9.20;;;5.70;;
22468;SDS011;11401;50.792;4.352;2023-05-10T04:49:01;9.38;;;4.53;;
22468;SDS011;11401;50.792;4.352;2023-05-10T04:51:28;6.97;;;4.78;;
22468;SDS011;11401;50.792;4.352;2023-05-10T04:53:55;7.60;;;4.57;;
22468;SDS011;11401;50.792;4.352;2023-05-10T04:56:31;7.70;;;4.68;;
22468;SDS011;11401;50.792;4.352;2023-05-10T04:58:59;5.18;;;4.10;;
22468;SDS011;11401;50.792;4.352;2023-05-10T05:01:26;4.82;;;3.92;;
22468;SDS011;11401;50.792;4.352;2023-05-10T05:03:53;4.70;;;3.75;;
22468;SDS011;11401;50.792;4.352;2023-05-10T05:06:21;5.78;;;3.97;;
22468;SDS011;11401;50.792;4.352;2023-05-10T05:08:47;4.70;;;4.15;;
22468;SDS011;11401;50.792;4.352;2023-05-10T05:11:16;8.02;;;4.50;;
22468;SDS011;11401;50.792;4.352;2023-05-10T05:13:43;4.53;;;3.80;;
22468;SDS011;11401;50.792;4.352;2023-05-10T05:16:10;5.25;;;4.05;;
22468;SDS011;11401;50.792;4.352;2023-05-10T05:18:38;4.30;;;3.90;;
22468;SDS011;11401;50.792;4.352;2023-05-10T05:21:17;6.65;;;5.07;;
22468;SDS011;11401;50.792;4.352;2023-05-10T05:23:45;7.03;;;4.50;;
22468;SDS011;11401;50.792;4.352;2023-05-10T05:26:12;6.05;;;4.75;;
22468;SDS011;11401;50.792;4.352;2023-05-10T05:28:39;6.47;;;4.65;;
22468;SDS011;11401;50.792;4.352;2023-05-10T05:31:06;6.13;;;4.35;;
22468;SDS011;11401;50.792;4.352;2023-05-10T05:33:34;5.78;;;4.88;;
22468;SDS011;11401;50.792;4.352;2023-05-10T05:36:04;5.00;;;3.80;;
22468;SDS011;11401;50.792;4.352;2023-05-10T05:38:32;6.93;;;4.32;;
22468;SDS011;11401;50.792;4.352;2023-05-10T05:40:59;7.60;;;4.22;;
22468;SDS011;11401;50.792;4.352;2023-05-10T05:43:26;8.13;;;4.75;;
22468;SDS011;11401;50.792;4.352;2023-05-10T05:45:53;6.68;;;4.72;;
22468;SDS011;11401;50.792;4.352;2023-05-10T05:48:21;8.02;;;4.13;;
22468;SDS011;11401;50.792;4.352;2023-05-10T05:50:48;5.60;;;4.05;;
22468;SDS011;11401;50.792;4.352;2023-05-10T05:53:15;7.35;;;3.85;;
22468;SDS011;11401;50.792;4.352;2023-05-10T05:55:54;5.63;;;3.45;;
22468;SDS011;11401;50.792;4.352;2023-05-10T05:58:22;12.85;;;4.22;;
22468;SDS011;11401;50.792;4.352;2023-05-10T06:00:50;5.45;;;3.33;;
22468;SDS011;11401;50.792;4.352;2023-05-10T06:03:20;5.22;;;3.80;;
22468;SDS011;11401;50.792;4.352;2023-05-10T06:05:48;11.75;;;3.65;;
22468;SDS011;11401;50.792;4.352;2023-05-10T06:08:15;5.55;;;2.83;;
22468;SDS011;11401;50.792;4.352;2023-05-10T06:10:42;4.35;;;2.83;;
22468;SDS011;11401;50.792;4.352;2023-05-10T06:13:09;7.38;;;3.05;;
22468;SDS011;11401;50.792;4.352;2023-05-10T06:15:36;5.85;;;3.25;;
22468;SDS011;11401;50.792;4.352;2023-05-10T06:18:03;5.38;;;2.83;;
22468;SDS011;11401;50.792;4.352;2023-05-10T06:20:31;4.70;;;3.10;;
22468;SDS011;11401;50.792;4.352;2023-05-10T06:22:58;7.78;;;3.45;;
22468;SDS011;11401;50.792;4.352;2023-05-10T06:25:25;5.28;;;2.83;;
22468;SDS011;11401;50.792;4.352;2023-05-10T06:27:52;4.25;;;3.17;;
22468;SDS011;11401;50.792;4.352;2023-05-10T06:30:24;4.55;;;3.25;;
22468;SDS011;11401;50.792;4.352;2023-05-10T06:32:55;4.30;;;3.13;;
22468;SDS011;11401;50.792;4.352;2023-05-10T06:35:23;4.45;;;3.10;;
22468;SDS011;11401;50.792;4.352;2023-05-10T06:37:50;2.95;;;2.65;;
22468;SDS011;11401;50.792;4.352;2023-05-10T06:40:18;3.65;;;2.78;;
22468;SDS011;11401;50.792;4.352;2023-05-10T06:42:46;3.83;;;2.60;;
22468;SDS011;11401;50.792;4.352;2023-05-10T06:45:14;4.28;;;2.50;;
22468;SDS011;11401;50.792;4.352;2023-05-10T06:47:42;3.65;;;2.70;;
22468;SDS011;11401;50.792;4.352;2023-05-10T06:50:10;2.75;;;2.45;;
22468;SDS011;11401;50.792;4.352;2023-05-10T06:52:40;3.17;;;2.88;;
22468;SDS011;11401;50.792;4.352;2023-05-10T06:55:07;7.43;;;3.17;;
22468;SDS011;11401;50.792;4.352;2023-05-10T06:57:35;2.97;;;2.45;;
22468;SDS011;11401;50.792;4.352;2023-05-10T07:00:02;2.72;;;2.50;;
22468;SDS011;11401;50.792;4.352;2023-05-10T07:02:32;3.20;;;2.67;;
22468;SDS011;11401;50.792;4.352;2023-05-10T07:05:00;3.35;;;2.17;;
22468;SDS011;11401;50.792;4.352;2023-05-10T07:07:28;3.05;;;2.03;;
22468;SDS011;11401;50.792;4.352;2023-05-10T07:09:56;6.60;;;2.72;;
22468;SDS011;11401;50.792;4.352;2023-05-10T07:12:24;3.08;;;2.78;;
22468;SDS011;11401;50.792;4.352;2023-05-10T07:14:51;3.05;;;2.30;;
22468;SDS011;11401;50.792;4.352;2023-05-10T07:17:18;4.28;;;2.72;;
22468;SDS011;11401;50.792;4.352;2023-05-10T07:19:45;3.95;;;2.72;;
22468;SDS011;11401;50.792;4.352;2023-05-10T07:22:13;3.03;;;2.72;;
22468;SDS011;11401;50.792;4.352;2023-05-10T07:24:40;5.43;;;3.10;;
22468;SDS011;11401;50.792;4.352;2023-05-10T07:27:07;4.22;;;2.85;;
22468;SDS011;11401;50.792;4.352;2023-05-10T07:29:34;3.08;;;2.67;;
22468;SDS011;11401;50.792;4.352;2023-05-10T07:32:01;2.85;;;2.33;;
22468;SDS011;11401;50.792;4.352;2023-05-10T07:34:29;4.03;;;2.78;;
22468;SDS011;11401;50.792;4.352;2023-05-10T07:36:59;4.88;;;3.85;;
22468;SDS011;11401;50.792;4.352;2023-05-10T07:39:29;4.53;;;2.95;;
22468;SDS011;11401;50.792;4.352;2023-05-10T07:41:56;5.90;;;3.28;;
22468;SDS011;11401;50.792;4.352;2023-05-10T07:44:23;4.03;;;2.70;;
22468;SDS011;11401;50.792;4.352;2023-05-10T07:46:51;4.68;;;2.80;;
22468;SDS011;11401;50.792;4.352;2023-05-10T07:49:18;4.63;;;3.15;;
22468;SDS011;11401;50.792;4.352;2023-05-10T07:51:45;3.10;;;2.85;;
22468;SDS011;11401;50.792;4.352;2023-05-10T07:54:12;3.05;;;2.80;;
22468;SDS011;11401;50.792;4.352;2023-05-10T07:56:40;3.97;;;2.50;;
22468;SDS011;11401;50.792;4.352;2023-05-10T07:59:14;2.25;;;2.03;;
22468;SDS011;11401;50.792;4.352;2023-05-10T08:01:43;4.15;;;2.60;;
22468;SDS011;11401;50.792;4.352;2023-05-10T08:04:11;3.53;;;3.22;;
22468;SDS011;11401;50.792;4.352;2023-05-10T08:06:39;2.80;;;2.47;;
22468;SDS011;11401;50.792;4.352;2023-05-10T08:09:06;4.65;;;2.38;;
22468;SDS011;11401;50.792;4.352;2023-05-10T08:11:34;3.42;;;2.30;;
22468;SDS011;11401;50.792;4.352;2023-05-10T08:14:01;2.67;;;2.35;;
22468;SDS011;11401;50.792;4.352;2023-05-10T08:16:28;2.58;;;2.08;;
22468;SDS011;11401;50.792;4.352;2023-05-10T08:18:56;3.08;;;1.83;;
22468;SDS011;11401;50.792;4.352;2023-05-10T08:21:23;2.65;;;2.40;;
22468;SDS011;11401;50.792;4.352;2023-05-10T08:23:50;3.15;;;1.92;;
22468;SDS011;11401;50.792;4.352;2023-05-10T08:26:17;3.13;;;2.05;;
22468;SDS011;11401;50.792;4.352;2023-05-10T08:28:44;3.03;;;2.78;;
22468;SDS011;11401;50.792;4.352;2023-05-10T08:31:11;2.45;;;2.25;;
22468;SDS011;11401;50.792;4.352;2023-05-10T08:33:38;3.00;;;1.88;;
22468;SDS011;11401;50.792;4.352;2023-05-10T08:36:08;2.97;;;2.20;;
22468;SDS011;11401;50.792;4.352;2023-05-10T08:38:35;2.97;;;2.45;;
22468;SDS011;11401;50.792;4.352;2023-05-10T08:41:03;3.35;;;2.28;;
22468;SDS011;11401;50.792;4.352;2023-05-10T08:43:32;1.90;;;1.80;;
22468;SDS011;11401;50.792;4.352;2023-05-10T08:46:02;2.08;;;1.90;;
22468;SDS011;11401;50.792;4.352;2023-05-10T08:48:30;1.80;;;1.70;;
22468;SDS011;11401;50.792;4.352;2023-05-10T08:51:00;2.08;;;1.88;;
22468;SDS011;11401;50.792;4.352;2023-05-10T08:53:30;2.10;;;1.90;;
22468;SDS011;11401;50.792;4.352;2023-05-10T08:55:59;4.10;;;2.10;;
22468;SDS011;11401;50.792;4.352;2023-05-10T08:58:27;2.22;;;2.08;;
22468;SDS011;11401;50.792;4.352;2023-05-10T09:00:54;2.70;;;2.50;;
22468;SDS011;11401;50.792;4.352;2023-05-10T09:03:22;2.58;;;2.35;;
22468;SDS011;11401;50.792;4.352;2023-05-10T09:05:49;5.05;;;2.50;;
22468;SDS011;11401;50.792;4.352;2023-05-10T09:08:16;3.92;;;2.20;;
22468;SDS011;11401;50.792;4.352;2023-05-10T09:10:44;3.40;;;2.35;;
22468;SDS011;11401;50.792;4.352;2023-05-10T09:13:14;1.80;;;1.65;;
22468;SDS011;11401;50.792;4.352;2023-05-10T09:15:43;2.78;;;2.20;;
22468;SDS011;11401;50.792;4.352;2023-05-10T09:18:11;2.70;;;2.50;;
22468;SDS011;11401;50.792;4.352;2023-05-10T09:20:39;2.35;;;2.08;;
22468;SDS011;11401;50.792;4.352;2023-05-10T09:23:06;3.35;;;3.00;;
22468;SDS011;11401;50.792;4.352;2023-05-10T09:25:34;6.00;;;2.28;;
22468;SDS011;11401;50.792;4.352;2023-05-10T09:28:01;2.38;;;2.17;;
22468;SDS011;11401;50.792;4.352;2023-05-10T09:30:32;2.78;;;2.53;;
22468;SDS011;11401;50.792;4.352;2023-05-10T09:33:00;2.97;;;2.53;;
22468;SDS011;11401;50.792;4.352;2023-05-10T09:35:28;2.60;;;2.40;;
22468;SDS011;11401;50.792;4.352;2023-05-10T09:37:59;3.05;;;2.20;;
22468;SDS011;11401;50.792;4.352;2023-05-10T09:40:27;2.15;;;2.05;;
22468;SDS011;11401;50.792;4.352;2023-05-10T09:45:48;1.80;;;1.67;;
22468;SDS011;11401;50.792;4.352;2023-05-10T09:48:21;2.33;;;2.13;;
22468;SDS011;11401;50.792;4.352;2023-05-10T09:50:56;2.15;;;1.95;;
22468;SDS011;11401;50.792;4.352;2023-05-10T09:53:24;2.17;;;2.00;;
22468;SDS011;11401;50.792;4.352;2023-05-10T09:55:51;2.50;;;1.98;;
22468;SDS011;11401;50.792;4.352;2023-05-10T09:58:18;1.88;;;1.73;;
22468;SDS011;11401;50.792;4.352;2023-05-10T10:00:45;1.70;;;1.60;;
22468;SDS011;11401;50.792;4.352;2023-05-10T10:03:15;2.60;;;2.33;;
22468;SDS011;11401;50.792;4.352;2023-05-10T10:05:46;1.70;;;1.60;;
22468;SDS011;11401;50.792;4.352;2023-05-10T10:08:15;2.47;;;1.90;;
22468;SDS011;11401;50.792;4.352;2023-05-10T10:10:42;2.33;;;2.10;;
22468;SDS011;11401;50.792;4.352;2023-05-10T10:13:13;2.50;;;1.90;;
22468;SDS011;11401;50.792;4.352;2023-05-10T10:15:40;2.20;;;2.03;;
22468;SDS011;11401;50.792;4.352;2023-05-10T10:18:12;3.10;;;2.00;;
22468;SDS011;11401;50.792;4.352;2023-05-10T10:20:41;2.75;;;1.90;;
22468;SDS011;11401;50.792;4.352;2023-05-10T10:23:08;2.30;;;2.00;;
22468;SDS011;11401;50.792;4.352;2023-05-10T10:25:36;2.35;;;1.75;;
22468;SDS011;11401;50.792;4.352;2023-05-10T10:28:08;2.70;;;2.50;;
22468;SDS011;11401;50.792;4.352;2023-05-10T10:30:48;2.22;;;1.95;;
22468;SDS011;11401;50.792;4.352;2023-05-10T10:36:17;2.33;;;2.13;;
22468;SDS011;11401;50.792;4.352;2023-05-10T10:52:14;3.30;;;2.78;;
22468;SDS011;11401;50.792;4.352;2023-05-10T10:55:01;2.78;;;2.50;;
22468;SDS011;11401;50.792;4.352;2023-05-10T11:03:09;2.63;;;2.42;;
22468;SDS011;11401;50.792;4.352;2023-05-10T11:05:55;2.10;;;1.98;;
22468;SDS011;11401;50.792;4.352;2023-05-10T11:08:27;2.50;;;2.30;;
22468;SDS011;11401;50.792;4.352;2023-05-10T11:13:33;4.40;;;2.20;;
22468;SDS011;11401;50.792;4.352;2023-05-10T11:18:59;3.35;;;3.05;;
22468;SDS011;11401;50.792;4.352;2023-05-10T11:21:30;2.63;;;2.42;;
22468;SDS011;11401;50.792;4.352;2023-05-10T11:23:59;2.47;;;2.25;;
22468;SDS011;11401;50.792;4.352;2023-05-10T11:26:33;3.33;;;2.30;;
22468;SDS011;11401;50.792;4.352;2023-05-10T11:29:02;3.45;;;2.40;;
22468;SDS011;11401;50.792;4.352;2023-05-10T11:31:31;2.28;;;2.08;;
22468;SDS011;11401;50.792;4.352;2023-05-10T11:33:59;2.78;;;2.50;;
22468;SDS011;11401;50.792;4.352;2023-05-10T11:36:33;1.92;;;1.83;;
22468;SDS011;11401;50.792;4.352;2023-05-10T11:39:02;4.57;;;3.00;;
22468;SDS011;11401;50.792;4.352;2023-05-10T11:41:30;2.65;;;2.45;;
22468;SDS011;11401;50.792;4.352;2023-05-10T11:43:58;2.55;;;2.35;;
22468;SDS011;11401;50.792;4.352;2023-05-10T11:46:26;3.20;;;2.90;;
22468;SDS011;11401;50.792;4.352;2023-05-10T11:48:57;2.60;;;2.40;;
22468;SDS011;11401;50.792;4.352;2023-05-10T11:51:28;2.78;;;2.58;;
22468;SDS011;11401;50.792;4.352;2023-05-10T11:53:55;2.72;;;2.53;;
22468;SDS011;11401;50.792;4.352;2023-05-10T11:56:23;3.13;;;2.83;;
22468;SDS011;11401;50.792;4.352;2023-05-10T11:58:53;2.65;;;2.45;;
22468;SDS011;11401;50.792;4.352;2023-05-10T12:01:25;2.22;;;2.13;;
22468;SDS011;11401;50.792;4.352;2023-05-10T12:03:53;4.25;;;3.85;;
22468;SDS011;11401;50.792;4.352;2023-05-10T12:06:29;2.78;;;2.47;;
22468;SDS011;11401;50.792;4.352;2023-05-10T12:08:58;4.70;;;2.83;;
22468;SDS011;11401;50.792;4.352;2023-05-10T12:11:26;6.13;;;3.08;;
22468;SDS011;11401;50.792;4.352;2023-05-10T12:13:55;2.60;;;2.40;;
22468;SDS011;11401;50.792;4.352;2023-05-10T12:16:24;2.92;;;2.72;;
22468;SDS011;11401;50.792;4.352;2023-05-10T12:18:58;4.15;;;3.10;;
22468;SDS011;11401;50.792;4.352;2023-05-10T12:21:27;5.45;;;3.28;;
22468;SDS011;11401;50.792;4.352;2023-05-10T12:23:58;3.75;;;2.80;;
22468;SDS011;11401;50.792;4.352;2023-05-10T12:26:27;3.47;;;2.95;;
22468;SDS011;11401;50.792;4.352;2023-05-10T12:28:55;4.45;;;3.20;;
22468;SDS011;11401;50.792;4.352;2023-05-10T12:31:57;4.00;;;3.20;;
22468;SDS011;11401;50.792;4.352;2023-05-10T12:34:26;3.95;;;3.38;;
22468;SDS011;11401;50.792;4.352;2023-05-10T12:37:00;2.75;;;2.55;;
22468;SDS011;11401;50.792;4.352;2023-05-10T12:39:45;7.65;;;3.45;;
22468;SDS011;11401;50.792;4.352;2023-05-10T12:42:13;4.22;;;3.35;;
22468;SDS011;11401;50.792;4.352;2023-05-10T12:44:40;5.88;;;4.25;;
22468;SDS011;11401;50.792;4.352;2023-05-10T12:47:07;4.03;;;3.50;;
22468;SDS011;11401;50.792;4.352;2023-05-10T12:49:34;4.03;;;3.63;;
22468;SDS011;11401;50.792;4.352;2023-05-10T12:52:01;3.35;;;2.65;;
22468;SDS011;11401;50.792;4.352;2023-05-10T12:54:28;4.88;;;3.38;;
22468;SDS011;11401;50.792;4.352;2023-05-10T12:56:55;3.10;;;2.80;;
22468;SDS011;11401;50.792;4.352;2023-05-10T12:59:22;3.30;;;3.03;;
22468;SDS011;11401;50.792;4.352;2023-05-10T13:01:49;3.55;;;3.25;;
22468;SDS011;11401;50.792;4.352;2023-05-10T13:04:16;3.67;;;3.38;;
22468;SDS011;11401;50.792;4.352;2023-05-10T13:06:44;4.03;;;3.45;;
22468;SDS011;11401;50.792;4.352;2023-05-10T13:09:11;3.20;;;2.83;;
22468;SDS011;11401;50.792;4.352;2023-05-10T13:11:38;5.28;;;3.38;;
22468;SDS011;11401;50.792;4.352;2023-05-10T13:14:04;5.00;;;3.20;;
22468;SDS011;11401;50.792;4.352;2023-05-10T13:16:31;3.08;;;2.85;;
22468;SDS011;11401;50.792;4.352;2023-05-10T13:18:59;4.00;;;2.50;;
22468;SDS011;11401;50.792;4.352;2023-05-10T13:21:26;4.57;;;2.47;;
22468;SDS011;11401;50.792;4.352;2023-05-10T13:23:53;6.25;;;3.70;;
22468;SDS011;11401;50.792;4.352;2023-05-10T13:26:20;4.15;;;2.83;;
22468;SDS011;11401;50.792;4.352;2023-05-10T13:28:47;2.90;;;2.60;;
22468;SDS011;11401;50.792;4.352;2023-05-10T13:31:15;7.30;;;3.58;;
22468;SDS011;11401;50.792;4.352;2023-05-10T13:33:42;4.18;;;3.35;;
22468;SDS011;11401;50.792;4.352;2023-05-10T13:36:09;3.50;;;3.20;;
22468;SDS011;11401;50.792;4.352;2023-05-10T13:38:36;3.60;;;3.03;;
22468;SDS011;11401;50.792;4.352;2023-05-10T13:41:04;4.20;;;3.70;;
22468;SDS011;11401;50.792;4.352;2023-05-10T13:43:31;8.93;;;4.38;;
22468;SDS011;11401;50.792;4.352;2023-05-10T13:45:58;2.25;;;1.77;;
22468;SDS011;11401;50.792;4.352;2023-05-10T13:48:25;3.13;;;2.72;;
22468;SDS011;11401;50.792;4.352;2023-05-10T13:50:52;3.10;;;2.63;;
22468;SDS011;11401;50.792;4.352;2023-05-10T13:53:19;5.85;;;4.78;;
22468;SDS011;11401;50.792;4.352;2023-05-10T13:55:45;8.05;;;5.50;;
22468;SDS011;11401;50.792;4.352;2023-05-10T13:58:13;8.00;;;5.60;;
22468;SDS011;11401;50.792;4.352;2023-05-10T14:00:40;3.45;;;3.15;;
22468;SDS011;11401;50.792;4.352;2023-05-10T14:03:07;4.45;;;4.00;;
22468;SDS011;11401;50.792;4.352;2023-05-10T14:05:37;5.47;;;4.82;;
22468;SDS011;11401;50.792;4.352;2023-05-10T14:08:04;4.63;;;4.20;;
22468;SDS011;11401;50.792;4.352;2023-05-10T14:10:31;6.38;;;4.43;;
22468;SDS011;11401;50.792;4.352;2023-05-10T14:12:58;4.95;;;4.55;;
22468;SDS011;11401;50.792;4.352;2023-05-10T14:15:25;5.25;;;4.82;;
22468;SDS011;11401;50.792;4.352;2023-05-10T14:17:52;8.52;;;5.85;;
22468;SDS011;11401;50.792;4.352;2023-05-10T14:20:20;5.70;;;4.28;;
22468;SDS011;11401;50.792;4.352;2023-05-10T14:22:47;5.53;;;4.13;;
22468;SDS011;11401;50.792;4.352;2023-05-10T14:25:13;6.25;;;5.65;;
22468;SDS011;11401;50.792;4.352;2023-05-10T14:27:41;5.43;;;4.93;;
22468;SDS011;11401;50.792;4.352;2023-05-10T14:30:08;5.45;;;4.57;;
22468;SDS011;11401;50.792;4.352;2023-05-10T14:32:36;8.07;;;5.25;;
22468;SDS011;11401;50.792;4.352;2023-05-10T14:35:03;6.70;;;4.53;;
22468;SDS011;11401;50.792;4.352;2023-05-10T14:37:32;9.27;;;5.90;;
22468;SDS011;11401;50.792;4.352;2023-05-10T14:39:59;7.43;;;5.88;;
22468;SDS011;11401;50.792;4.352;2023-05-10T14:42:26;6.78;;;5.38;;
22468;SDS011;11401;50.792;4.352;2023-05-10T14:44:55;7.32;;;5.93;;
22468;SDS011;11401;50.792;4.352;2023-05-10T14:47:21;6.88;;;5.45;;
22468;SDS011;11401;50.792;4.352;2023-05-10T14:49:48;6.85;;;6.15;;
22468;SDS011;11401;50.792;4.352;2023-05-10T14:52:15;10.30;;;6.85;;
22468;SDS011;11401;50.792;4.352;2023-05-10T14:54:43;7.47;;;6.32;;
22468;SDS011;11401;50.792;4.352;2023-05-10T14:57:10;6.80;;;5.85;;
22468;SDS011;11401;50.792;4.352;2023-05-10T14:59:37;9.05;;;7.65;;
22468;SDS011;11401;50.792;4.352;2023-05-10T15:02:05;9.82;;;7.95;;
22468;SDS011;11401;50.792;4.352;2023-05-10T15:04:34;8.27;;;5.53;;
22468;SDS011;11401;50.792;4.352;2023-05-10T15:07:02;7.18;;;6.20;;
22468;SDS011;11401;50.792;4.352;2023-05-10T15:09:29;8.80;;;7.20;;
22468;SDS011;11401;50.792;4.352;2023-05-10T15:11:56;8.25;;;6.63;;
22468;SDS011;11401;50.792;4.352;2023-05-10T15:14:24;8.02;;;7.15;;
22468;SDS011;11401;50.792;4.352;2023-05-10T15:16:51;8.15;;;5.97;;
22468;SDS011;11401;50.792;4.352;2023-05-10T15:19:18;8.77;;;5.43;;
22468;SDS011;11401;50.792;4.352;2023-05-10T15:21:45;5.85;;;5.13;;
22468;SDS011;11401;50.792;4.352;2023-05-10T15:24:13;5.60;;;4.43;;
22468;SDS011;11401;50.792;4.352;2023-05-10T15:26:40;7.18;;;4.50;;
22468;SDS011;11401;50.792;4.352;2023-05-10T15:29:07;5.07;;;3.90;;
22468;SDS011;11401;50.792;4.352;2023-05-10T15:31:34;5.53;;;3.67;;
22468;SDS011;11401;50.792;4.352;2023-05-10T15:34:02;7.68;;;3.20;;
22468;SDS011;11401;50.792;4.352;2023-05-10T15:36:29;5.60;;;3.22;;
22468;SDS011;11401;50.792;4.352;2023-05-10T15:38:56;3.58;;;2.75;;
22468;SDS011;11401;50.792;4.352;2023-05-10T15:41:22;5.07;;;2.60;;
22468;SDS011;11401;50.792;4.352;2023-05-10T15:43:50;3.33;;;2.55;;
22468;SDS011;11401;50.792;4.352;2023-05-10T15:46:17;4.30;;;2.53;;
22468;SDS011;11401;50.792;4.352;2023-05-10T15:48:44;5.55;;;2.60;;
22468;SDS011;11401;50.792;4.352;2023-05-10T15:51:11;3.22;;;2.47;;